Time;durP1;ratioP1;P1;durP2;ratioP2;P2;SDS_P1;SDS_P2;PMS_P1;PMS_P2;Temp;Humidity;BMP_temperature;BMP_pressure;BME280_temperature;BME280_humidity;BME280_pressure;Samples;Min_cycle;Max_cycle;Signal;HPM_P1;HPM_P2
2023/04/14 00:00:39;;;;;;;1.87;1.23;;;;;;;;;;6215489;23;20441;-66
2023/04/14 00:03:05;;;;;;;1.57;1.47;;;;;;;;;;6215672;23;20435;-66
2023/04/14 00:05:31;;;;;;;3.10;1.60;;;;;;;;;;6215913;23;20383;-66
2023/04/14 00:07:57;;;;;;;3.03;1.63;;;;;;;;;;6215534;23;20466;-66
2023/04/14 00:10:24;;;;;;;2.23;1.40;;;;;;;;;;6215566;23;20430;-66
2023/04/14 00:12:50;;;;;;;1.67;1.57;;;;;;;;;;6215892;23;20390;-67
2023/04/14 00:15:16;;;;;;;4.37;1.90;;;;;;;;;;6215998;23;20465;-66
2023/04/14 00:17:42;;;;;;;2.40;1.40;;;;;;;;;;6215910;23;20398;-66
2023/04/14 00:20:08;;;;;;;2.97;1.30;;;;;;;;;;6216641;23;20367;-66
2023/04/14 00:22:35;;;;;;;12.40;1.80;;;;;;;;;;6215786;23;20439;-66
2023/04/14 00:25:01;;;;;;;2.50;2.30;;;;;;;;;;6215378;23;20379;-66
2023/04/14 00:27:28;;;;;;;2.50;2.20;;;;;;;;;;6215680;23;20383;-66
2023/04/14 00:29:54;;;;;;;7.13;2.57;;;;;;;;;;6215731;23;20375;-66
2023/04/14 00:32:20;;;;;;;5.10;2.80;;;;;;;;;;6215783;23;20438;-66
2023/04/14 00:34:46;;;;;;;2.37;2.27;;;;;;;;;;6215785;23;20406;-66
2023/04/14 00:37:12;;;;;;;1.80;1.63;;;;;;;;;;6215996;23;20375;-66
2023/04/14 00:39:38;;;;;;;2.50;1.67;;;;;;;;;;6215056;23;20423;-66
2023/04/14 00:42:04;;;;;;;3.77;1.77;;;;;;;;;;6216186;23;20419;-66
2023/04/14 00:44:30;;;;;;;2.40;1.37;;;;;;;;;;6215742;23;20375;-66
2023/04/14 00:46:56;;;;;;;2.10;1.73;;;;;;;;;;6215851;23;20462;-65
2023/04/14 00:49:22;;;;;;;2.37;1.40;;;;;;;;;;6215718;23;20383;-66
2023/04/14 00:51:48;;;;;;;1.50;1.50;;;;;;;;;;6215193;23;20462;-66
2023/04/14 00:54:15;;;;;;;3.80;1.50;;;;;;;;;;6213762;23;20399;-65
2023/04/14 00:56:41;;;;;;;2.97;1.77;;;;;;;;;;6215291;23;20378;-66
2023/04/14 00:59:08;;;;;;;1.43;1.33;;;;;;;;;;6215700;23;20394;-66
2023/04/14 01:01:37;;;;;;;8.07;1.77;;;;;;;;;;6215625;23;20748;-66
2023/04/14 01:04:03;;;;;;;2.20;1.67;;;;;;;;;;6215136;23;20466;-66
2023/04/14 01:06:29;;;;;;;6.70;1.87;;;;;;;;;;6215917;23;20410;-66
2023/04/14 01:08:56;;;;;;;1.50;1.40;;;;;;;;;;6215262;23;20437;-66
2023/04/14 01:11:31;;;;;;;2.30;1.40;;;;;;;;;;6215207;23;20439;-66
2023/04/14 01:13:57;;;;;;;1.33;1.23;;;;;;;;;;6216737;23;20449;-66
2023/04/14 01:16:28;;;;;;;11.20;1.77;;;;;;;;;;6217277;23;20890;-66
2023/04/14 01:19:26;;;;;;;1.43;1.33;;;;;;;;;;6217638;23;20707;-66
2023/04/14 01:21:56;;;;;;;9.83;1.40;;;;;;;;;;6151546;23;20394;-66
2023/04/14 01:24:22;;;;;;;1.47;1.37;;;;;;;;;;6217743;23;20712;-66
2023/04/14 01:26:52;;;;;;;1.10;1.10;;;;;;;;;;6217168;23;20375;-66
2023/04/14 01:29:36;;;;;;;3.47;1.80;;;;;;;;;;6217401;23;20375;-66
2023/04/14 01:32:04;;;;;;;1.30;1.20;;;;;;;;;;6217471;23;20428;-66
2023/04/14 01:34:36;;;;;;;2.00;1.77;;;;;;;;;;6215510;23;20421;-66
2023/04/14 01:37:05;;;;;;;1.97;1.70;;;;;;;;;;6217443;23;20436;-66
2023/04/14 01:39:34;;;;;;;1.90;1.70;;;;;;;;;;6216999;23;20474;-66
2023/04/14 01:42:01;;;;;;;3.20;1.60;;;;;;;;;;6217272;23;20363;-66
2023/04/14 01:44:27;;;;;;;4.57;1.20;;;;;;;;;;6217369;23;20386;-66
2023/04/14 01:46:57;;;;;;;1.47;1.47;;;;;;;;;;6217447;23;20378;-66
2023/04/14 01:49:24;;;;;;;6.90;1.47;;;;;;;;;;6217431;23;20470;-66
2023/04/14 01:51:50;;;;;;;4.10;1.77;;;;;;;;;;6217584;23;20375;-66
2023/04/14 01:54:17;;;;;;;1.83;1.60;;;;;;;;;;6217309;23;20375;-66
2023/04/14 01:56:44;;;;;;;1.97;1.20;;;;;;;;;;6217277;23;20753;-66
2023/04/14 01:59:11;;;;;;;1.43;1.33;;;;;;;;;;6217043;23;20383;-66
2023/04/14 02:01:38;;;;;;;3.53;1.23;;;;;;;;;;6218051;23;20438;-66
2023/04/14 02:04:04;;;;;;;1.40;1.30;;;;;;;;;;6217040;23;20481;-66
2023/04/14 02:06:31;;;;;;;1.50;1.40;;;;;;;;;;6217154;23;20379;-66
2023/04/14 02:08:59;;;;;;;2.10;2.00;;;;;;;;;;6217087;23;20745;-66
2023/04/14 02:11:27;;;;;;;1.97;1.70;;;;;;;;;;6216961;23;20842;-66
2023/04/14 02:13:54;;;;;;;1.50;1.40;;;;;;;;;;6217022;23;20458;-66
2023/04/14 02:19:24;;;;;;;1.63;1.53;;;;;;;;;;6217074;23;20414;-66
2023/04/14 02:21:51;;;;;;;2.30;1.60;;;;;;;;;;6216929;23;20376;-67
2023/04/14 02:24:18;;;;;;;1.90;1.80;;;;;;;;;;6216367;23;20428;-66
2023/04/14 02:26:50;;;;;;;2.30;2.10;;;;;;;;;;6217330;23;20379;-66
2023/04/14 02:29:18;;;;;;;2.03;2.00;;;;;;;;;;6217103;23;20364;-66
2023/04/14 02:31:46;;;;;;;2.87;2.10;;;;;;;;;;6216481;23;20853;-66
2023/04/14 02:34:13;;;;;;;4.43;1.70;;;;;;;;;;6216802;23;20439;-67
2023/04/14 02:36:42;;;;;;;1.40;1.40;;;;;;;;;;6216522;23;20375;-66
2023/04/14 02:39:23;;;;;;;1.80;1.70;;;;;;;;;;6216802;23;20371;-66
2023/04/14 02:41:55;;;;;;;2.00;1.43;;;;;;;;;;6216756;23;20381;-66
2023/04/14 02:44:25;;;;;;;1.07;1.07;;;;;;;;;;6216813;23;20375;-66
2023/04/14 02:47:05;;;;;;;1.30;1.20;;;;;;;;;;6216741;23;20437;-66
2023/04/14 02:49:35;;;;;;;2.40;1.27;;;;;;;;;;6216429;23;20364;-66
2023/04/14 02:52:02;;;;;;;1.33;1.30;;;;;;;;;;6216278;23;20880;-66
2023/04/14 02:54:28;;;;;;;2.90;1.50;;;;;;;;;;6216587;23;20430;-67
2023/04/14 02:56:56;;;;;;;2.27;1.73;;;;;;;;;;6216388;23;20753;-66
2023/04/14 02:59:22;;;;;;;5.73;1.20;;;;;;;;;;6216608;23;20387;-66
2023/04/14 03:01:49;;;;;;;2.20;2.10;;;;;;;;;;6216374;23;20383;-66
2023/04/14 03:04:15;;;;;;;2.03;1.93;;;;;;;;;;6216591;23;20424;-66
2023/04/14 03:06:41;;;;;;;2.27;2.10;;;;;;;;;;6216593;23;20379;-66
2023/04/14 03:09:07;;;;;;;2.27;2.17;;;;;;;;;;6216557;23;20395;-66
2023/04/14 03:11:34;;;;;;;1.50;1.40;;;;;;;;;;6216186;23;20375;-66
2023/04/14 03:14:00;;;;;;;3.63;1.93;;;;;;;;;;6216516;23;20410;-66
2023/04/14 03:19:31;;;;;;;1.77;1.67;;;;;;;;;;6216244;23;20759;-66
2023/04/14 03:21:58;;;;;;;2.70;1.70;;;;;;;;;;6215919;23;20915;-65
2023/04/14 03:24:29;;;;;;;1.93;1.80;;;;;;;;;;6216031;23;20752;-68
2023/04/14 03:26:58;;;;;;;2.83;2.53;;;;;;;;;;6217013;23;20367;-65
2023/04/14 03:29:28;;;;;;;2.23;2.13;;;;;;;;;;6216370;23;20371;-66
2023/04/14 03:31:55;;;;;;;2.70;2.47;;;;;;;;;;6216039;23;20376;-66
2023/04/14 03:34:24;;;;;;;3.07;2.43;;;;;;;;;;6216976;23;20375;-66
2023/04/14 03:36:53;;;;;;;3.00;2.80;;;;;;;;;;6215861;23;20387;-66
2023/04/14 03:39:19;;;;;;;4.40;1.50;;;;;;;;;;6215719;23;20395;-66
2023/04/14 03:41:48;;;;;;;2.20;2.10;;;;;;;;;;6216241;23;20376;-66
2023/04/14 03:44:17;;;;;;;2.20;2.10;;;;;;;;;;6215871;23;20402;-66
2023/04/14 03:46:43;;;;;;;3.57;2.30;;;;;;;;;;6215898;23;20371;-66
2023/04/14 03:49:10;;;;;;;1.57;1.47;;;;;;;;;;6215932;23;20401;-66
2023/04/14 03:51:37;;;;;;;1.60;1.50;;;;;;;;;;6216250;23;20383;-66
2023/04/14 03:54:05;;;;;;;2.23;1.50;;;;;;;;;;6216124;23;20371;-66
2023/04/14 03:56:32;;;;;;;2.03;1.93;;;;;;;;;;6214299;23;20421;-66
2023/04/14 03:58:59;;;;;;;1.37;1.33;;;;;;;;;;6216169;23;20417;-66
2023/04/14 04:01:26;;;;;;;1.90;1.50;;;;;;;;;;6215904;23;20826;-66
2023/04/14 04:03:53;;;;;;;1.40;1.23;;;;;;;;;;6216161;23;20433;-66
2023/04/14 04:06:19;;;;;;;1.40;1.30;;;;;;;;;;6215763;23;20829;-66
2023/04/14 04:08:47;;;;;;;5.60;2.40;;;;;;;;;;6216028;23;20429;-66
2023/04/14 04:11:17;;;;;;;1.40;1.40;;;;;;;;;;6215591;23;20877;-66
2023/04/14 04:13:44;;;;;;;1.80;1.70;;;;;;;;;;6190363;23;20757;-66
2023/04/14 04:16:11;;;;;;;6.53;2.57;;;;;;;;;;6216003;23;20416;-66
2023/04/14 04:18:37;;;;;;;5.73;3.50;;;;;;;;;;6216014;23;20375;-66
2023/04/14 04:21:04;;;;;;;2.50;2.40;;;;;;;;;;6215892;23;20410;-66
2023/04/14 04:23:32;;;;;;;4.20;2.10;;;;;;;;;;6215998;23;20435;-66
2023/04/14 04:25:58;;;;;;;2.73;1.50;;;;;;;;;;6215553;23;20871;-66
2023/04/14 04:28:24;;;;;;;3.53;1.57;;;;;;;;;;6215600;23;20386;-66
2023/04/14 04:30:52;;;;;;;1.80;1.70;;;;;;;;;;6215854;23;20442;-67
2023/04/14 04:33:19;;;;;;;2.00;1.90;;;;;;;;;;6215327;23;20387;-66
2023/04/14 04:35:46;;;;;;;2.70;1.43;;;;;;;;;;6215984;23;20379;-66
2023/04/14 04:38:12;;;;;;;3.40;1.77;;;;;;;;;;6215393;23;20699;-66
2023/04/14 04:40:38;;;;;;;2.83;1.90;;;;;;;;;;6215364;23;20423;-66
2023/04/14 04:43:04;;;;;;;1.50;1.40;;;;;;;;;;6215424;23;20895;-66
2023/04/14 04:45:36;;;;;;;2.00;2.00;;;;;;;;;;6215491;23;20367;-66
2023/04/14 04:48:03;;;;;;;1.73;1.30;;;;;;;;;;6216936;23;20375;-66
2023/04/14 04:50:29;;;;;;;1.47;1.33;;;;;;;;;;6218981;23;20379;-66
2023/04/14 04:52:55;;;;;;;2.57;2.10;;;;;;;;;;6219154;23;20418;-66
2023/04/14 04:55:21;;;;;;;4.50;4.10;;;;;;;;;;6219519;23;20371;-66
2023/04/14 04:57:46;;;;;;;4.53;4.20;;;;;;;;;;6219040;23;20375;-66
2023/04/14 05:00:13;;;;;;;5.87;4.40;;;;;;;;;;6218704;23;20367;-66
2023/04/14 05:02:39;;;;;;;4.43;4.00;;;;;;;;;;6218749;23;20418;-66
2023/04/14 05:05:05;;;;;;;7.10;3.43;;;;;;;;;;6218719;23;20375;-66
2023/04/14 05:07:31;;;;;;;3.47;2.50;;;;;;;;;;6218748;23;20363;-66
2023/04/14 05:09:57;;;;;;;3.90;2.13;;;;;;;;;;6219041;23;20379;-66
2023/04/14 05:12:23;;;;;;;3.80;2.80;;;;;;;;;;6219872;23;20463;-66
2023/04/14 05:14:49;;;;;;;2.50;2.40;;;;;;;;;;6219058;23;20405;-66
2023/04/14 05:17:15;;;;;;;5.03;3.30;;;;;;;;;;6219416;23;20772;-66
2023/04/14 05:19:41;;;;;;;3.30;2.57;;;;;;;;;;6218666;23;20374;-66
2023/04/14 05:22:07;;;;;;;2.93;2.27;;;;;;;;;;6218500;23;20406;-66
2023/04/14 05:24:33;;;;;;;3.70;2.20;;;;;;;;;;6219013;23;20379;-66
2023/04/14 05:27:00;;;;;;;4.67;2.60;;;;;;;;;;6217082;23;20398;-66
2023/04/14 05:29:26;;;;;;;5.90;2.90;;;;;;;;;;6219608;23;20397;-66
2023/04/14 05:31:52;;;;;;;2.80;2.60;;;;;;;;;;6218359;23;20406;-66
2023/04/14 05:34:18;;;;;;;8.83;2.97;;;;;;;;;;6218412;23;20382;-66
2023/04/14 05:36:44;;;;;;;3.37;2.47;;;;;;;;;;6219610;23;20383;-66
2023/04/14 05:39:10;;;;;;;3.83;2.90;;;;;;;;;;6218541;23;20772;-66
2023/04/14 05:41:36;;;;;;;2.60;2.50;;;;;;;;;;6218884;23;20924;-67
2023/04/14 05:44:03;;;;;;;2.60;2.40;;;;;;;;;;6218466;23;20477;-66
2023/04/14 05:46:28;;;;;;;3.30;2.67;;;;;;;;;;6218552;23;20371;-67
2023/04/14 05:48:56;;;;;;;2.60;2.33;;;;;;;;;;6218527;23;20386;-66
2023/04/14 05:51:22;;;;;;;14.50;4.80;;;;;;;;;;6218521;23;20403;-67
2023/04/14 05:53:48;;;;;;;4.43;3.70;;;;;;;;;;6218612;23;20428;-69
2023/04/14 05:56:14;;;;;;;12.03;2.90;;;;;;;;;;6218519;23;20398;-70
2023/04/14 05:58:40;;;;;;;2.13;1.93;;;;;;;;;;6218528;23;20383;-66
2023/04/14 06:01:06;;;;;;;2.10;1.70;;;;;;;;;;6216506;23;20382;-68
2023/04/14 06:03:32;;;;;;;1.40;1.40;;;;;;;;;;6217185;23;20431;-68
2023/04/14 06:05:58;;;;;;;1.90;1.80;;;;;;;;;;6217209;23;20833;-66
2023/04/14 06:08:24;;;;;;;2.67;2.47;;;;;;;;;;6216897;23;20390;-69
2023/04/14 06:10:50;;;;;;;1.70;1.70;;;;;;;;;;6216831;23;20371;-67
2023/04/14 06:13:16;;;;;;;2.63;2.30;;;;;;;;;;6217128;23;20433;-66
2023/04/14 06:15:42;;;;;;;5.57;2.27;;;;;;;;;;6217062;23;20672;-68
2023/04/14 06:18:08;;;;;;;16.33;3.17;;;;;;;;;;6217023;23;20433;-75
2023/04/14 06:20:35;;;;;;;2.93;2.13;;;;;;;;;;6217074;23;20831;-70
2023/04/14 06:23:01;;;;;;;5.23;2.53;;;;;;;;;;6216625;23;20462;-66
2023/04/14 06:25:27;;;;;;;8.33;1.90;;;;;;;;;;6217048;23;20378;-69
2023/04/14 06:27:53;;;;;;;9.10;2.87;;;;;;;;;;6217012;23;20716;-66
2023/04/14 06:30:18;;;;;;;4.40;3.30;;;;;;;;;;6216847;23;20379;-64
2023/04/14 06:32:45;;;;;;;7.10;3.40;;;;;;;;;;6216638;23;20380;-64
2023/04/14 06:35:11;;;;;;;4.20;2.60;;;;;;;;;;6216597;23;20829;-67
2023/04/14 06:37:37;;;;;;;3.20;2.50;;;;;;;;;;6216914;23;20382;-71
2023/04/14 06:40:03;;;;;;;2.07;1.97;;;;;;;;;;6216546;23;20426;-66
2023/04/14 06:42:29;;;;;;;5.23;2.80;;;;;;;;;;6216856;23;20410;-67
2023/04/14 06:44:55;;;;;;;4.40;1.87;;;;;;;;;;6216501;23;20379;-67
2023/04/14 06:47:21;;;;;;;3.77;1.63;;;;;;;;;;6215420;23;20456;-70
2023/04/14 06:49:47;;;;;;;2.03;1.90;;;;;;;;;;6216825;23;20418;-67
2023/04/14 06:52:13;;;;;;;2.83;1.10;;;;;;;;;;6216735;23;20378;-68
2023/04/14 06:54:40;;;;;;;2.90;1.93;;;;;;;;;;6216474;23;20368;-68
2023/04/14 06:57:07;;;;;;;4.83;1.47;;;;;;;;;;6216474;23;20458;-73
2023/04/14 06:59:33;;;;;;;1.77;1.13;;;;;;;;;;6216449;23;20367;-69
2023/04/14 07:01:59;;;;;;;1.10;1.00;;;;;;;;;;6216548;23;20372;-70
2023/04/14 07:04:25;;;;;;;1.47;0.90;;;;;;;;;;6216765;23;20396;-70
2023/04/14 07:06:51;;;;;;;4.53;1.40;;;;;;;;;;6216196;23;20861;-70
2023/04/14 07:09:18;;;;;;;7.57;1.90;;;;;;;;;;6214699;23;20457;-70
2023/04/14 07:11:45;;;;;;;4.03;1.20;;;;;;;;;;6216502;23;20470;-70
2023/04/14 07:14:11;;;;;;;1.40;1.30;;;;;;;;;;6216211;23;20935;-69
2023/04/14 07:16:37;;;;;;;7.23;1.53;;;;;;;;;;6216201;23;20715;-72
2023/04/14 07:19:03;;;;;;;1.30;1.20;;;;;;;;;;6216511;23;20383;-67
2023/04/14 07:21:30;;;;;;;7.60;1.17;;;;;;;;;;6216107;23;20930;-67
2023/04/14 07:23:56;;;;;;;1.83;0.83;;;;;;;;;;6216355;23;20434;-67
2023/04/14 07:29:27;;;;;;;2.63;1.03;;;;;;;;;;6216143;23;20859;-67
2023/04/14 07:31:53;;;;;;;1.90;1.40;;;;;;;;;;6216384;23;20383;-67
2023/04/14 07:34:20;;;;;;;1.33;1.20;;;;;;;;;;6216339;23;20375;-71
2023/04/14 07:36:46;;;;;;;1.03;1.03;;;;;;;;;;6214285;23;20704;-68
2023/04/14 07:39:11;;;;;;;1.70;0.70;;;;;;;;;;6215808;23;20380;-72
2023/04/14 07:41:37;;;;;;;1.00;1.00;;;;;;;;;;6215868;23;20452;-70
2023/04/14 07:44:03;;;;;;;2.60;2.50;;;;;;;;;;6216169;23;20466;-68
2023/04/14 07:46:30;;;;;;;2.13;1.20;;;;;;;;;;6216182;23;20868;-68
2023/04/14 07:48:56;;;;;;;2.13;1.27;;;;;;;;;;6216608;23;20414;-67
2023/04/14 07:51:22;;;;;;;1.57;0.73;;;;;;;;;;6214321;23;20391;-68
2023/04/14 07:53:49;;;;;;;4.80;1.00;;;;;;;;;;6215778;23;20449;-67
2023/04/14 07:56:15;;;;;;;3.40;1.50;;;;;;;;;;6215746;23;20396;-68
2023/04/14 07:58:41;;;;;;;5.60;1.60;;;;;;;;;;6216015;23;20391;-68
2023/04/14 08:01:07;;;;;;;0.73;0.73;;;;;;;;;;6215562;23;20399;-68
2023/04/14 08:03:36;;;;;;;2.63;1.10;;;;;;;;;;6215967;23;20455;-67
2023/04/14 08:06:02;;;;;;;4.13;1.57;;;;;;;;;;6215689;23;20746;-68
2023/04/14 08:08:28;;;;;;;1.10;1.00;;;;;;;;;;6215645;23;20425;-67
2023/04/14 08:10:54;;;;;;;3.17;1.60;;;;;;;;;;6216023;23;20374;-67
2023/04/14 08:13:20;;;;;;;5.70;1.53;;;;;;;;;;6216082;23;20454;-68
2023/04/14 08:15:46;;;;;;;1.30;1.20;;;;;;;;;;6214185;23;20379;-67
2023/04/14 08:18:12;;;;;;;2.17;1.73;;;;;;;;;;6216477;23;20383;-67
2023/04/14 08:20:38;;;;;;;2.23;2.13;;;;;;;;;;6215544;23;20437;-67
2023/04/14 08:23:04;;;;;;;2.20;1.00;;;;;;;;;;6215225;23;20502;-67
2023/04/14 08:25:30;;;;;;;2.70;1.37;;;;;;;;;;6215939;23;20387;-67
2023/04/14 08:27:56;;;;;;;4.00;1.57;;;;;;;;;;6215875;23;20446;-66
2023/04/14 08:30:22;;;;;;;2.20;1.37;;;;;;;;;;6215484;23;20383;-69
2023/04/14 08:32:48;;;;;;;4.60;1.80;;;;;;;;;;6214034;23;20723;-72
2023/04/14 08:35:15;;;;;;;3.53;1.20;;;;;;;;;;6215811;23;20379;-66
2023/04/14 08:37:41;;;;;;;2.60;1.30;;;;;;;;;;6215720;23;20378;-69
2023/04/14 08:40:10;;;;;;;2.97;1.07;;;;;;;;;;6215284;23;20758;-68
2023/04/14 08:42:36;;;;;;;3.00;1.07;;;;;;;;;;6215664;23;20430;-69
2023/04/14 08:45:02;;;;;;;7.90;1.40;;;;;;;;;;6213874;23;20391;-69
2023/04/14 08:47:30;;;;;;;1.20;1.10;;;;;;;;;;6216282;23;20417;-67
2023/04/14 08:50:01;;;;;;;1.90;1.30;;;;;;;;;;6215674;23;20382;-67
2023/04/14 08:52:28;;;;;;;2.63;1.30;;;;;;;;;;6215446;23;20880;-68
2023/04/14 08:54:55;;;;;;;3.07;0.90;;;;;;;;;;6215155;23;20382;-68
2023/04/14 08:57:22;;;;;;;2.67;1.17;;;;;;;;;;6215227;23;20379;-68
2023/04/14 08:59:48;;;;;;;2.13;1.03;;;;;;;;;;6215482;23;20371;-72
2023/04/14 09:02:14;;;;;;;1.77;1.07;;;;;;;;;;6215547;23;20374;-71
2023/04/14 09:04:41;;;;;;;2.00;1.00;;;;;;;;;;6215368;23;20383;-67
2023/04/14 09:10:11;;;;;;;4.33;1.57;;;;;;;;;;6215397;23;20456;-72
2023/04/14 09:12:41;;;;;;;1.03;1.00;;;;;;;;;;6215395;23;20375;-71
2023/04/14 09:15:07;;;;;;;1.57;1.40;;;;;;;;;;6215490;23;20371;-68
2023/04/14 09:17:35;;;;;;;3.63;1.60;;;;;;;;;;6215108;23;20446;-69
2023/04/14 09:20:01;;;;;;;1.27;1.03;;;;;;;;;;6215580;23;20375;-69
2023/04/14 09:22:27;;;;;;;2.23;1.20;;;;;;;;;;6215514;23;20426;-69
2023/04/14 09:24:53;;;;;;;4.83;1.33;;;;;;;;;;6215192;23;20721;-68
2023/04/14 09:27:19;;;;;;;1.73;1.63;;;;;;;;;;6214986;23;20363;-68
2023/04/14 09:29:46;;;;;;;0.77;0.77;;;;;;;;;;6215264;23;20441;-69
2023/04/14 09:32:12;;;;;;;1.20;1.07;;;;;;;;;;6215315;23;20833;-67
2023/04/14 09:34:49;;;;;;;1.00;1.00;;;;;;;;;;6215648;23;20382;-71
2023/04/14 09:37:15;;;;;;;1.17;1.10;;;;;;;;;;6217241;23;20367;-69
2023/04/14 09:39:50;;;;;;;2.83;1.40;;;;;;;;;;6216835;23;20434;-71
2023/04/14 09:42:16;;;;;;;1.03;1.00;;;;;;;;;;6217092;23;20374;-69
2023/04/14 09:44:52;;;;;;;1.53;1.23;;;;;;;;;;6217502;23;20383;-70
2023/04/14 09:47:19;;;;;;;4.23;1.70;;;;;;;;;;6216775;23;20884;-72
2023/04/14 09:49:59;;;;;;;1.17;1.17;;;;;;;;;;6216749;23;20462;-67
2023/04/14 09:52:37;;;;;;;1.53;1.40;;;;;;;;;;6217096;23;20755;-71
2023/04/14 09:55:13;;;;;;;1.10;1.00;;;;;;;;;;6217210;23;20401;-69
2023/04/14 09:57:42;;;;;;;0.80;0.80;;;;;;;;;;6216803;23;20429;-69
2023/04/14 10:00:21;;;;;;;4.00;1.00;;;;;;;;;;6216975;23;20382;-66
2023/04/14 10:02:48;;;;;;;1.80;0.80;;;;;;;;;;6217010;23;20419;-66
2023/04/14 10:05:14;;;;;;;3.07;0.90;;;;;;;;;;6216742;23;20383;-67
2023/04/14 10:07:41;;;;;;;1.80;1.00;;;;;;;;;;6216996;23;20458;-65
2023/04/14 10:10:09;;;;;;;6.73;1.80;;;;;;;;;;6191042;23;20400;-66
2023/04/14 10:12:35;;;;;;;8.43;1.37;;;;;;;;;;6216640;23;20701;-65
2023/04/14 10:15:02;;;;;;;8.13;1.77;;;;;;;;;;6216914;23;20375;-68
2023/04/14 10:17:28;;;;;;;2.23;0.63;;;;;;;;;;6216736;23;20387;-67
2023/04/14 10:19:54;;;;;;;0.97;0.97;;;;;;;;;;6216441;23;20372;-70
2023/04/14 10:22:22;;;;;;;1.17;0.67;;;;;;;;;;6214897;23;20462;-70
2023/04/14 10:24:49;;;;;;;4.73;1.23;;;;;;;;;;6216618;23;20834;-69
2023/04/14 10:27:15;;;;;;;3.37;1.30;;;;;;;;;;6216747;23;20383;-68
2023/04/14 10:29:41;;;;;;;3.20;0.87;;;;;;;;;;6216562;23;20635;-67
2023/04/14 10:32:08;;;;;;;1.83;1.40;;;;;;;;;;6216761;23;20700;-68
2023/04/14 10:34:35;;;;;;;1.57;0.80;;;;;;;;;;6214797;23;20711;-67
2023/04/14 10:37:13;;;;;;;8.20;1.90;;;;;;;;;;6216864;23;20386;-70
2023/04/14 10:39:41;;;;;;;4.30;1.67;;;;;;;;;;6216319;23;20802;-74
2023/04/14 10:42:07;;;;;;;2.30;0.93;;;;;;;;;;6190875;23;20376;-70
2023/04/14 10:44:34;;;;;;;1.73;0.97;;;;;;;;;;6216653;23;20466;-74
2023/04/14 10:47:03;;;;;;;3.33;1.80;;;;;;;;;;6216282;23;20414;-70
2023/04/14 10:49:38;;;;;;;5.37;1.50;;;;;;;;;;6216293;23;20466;-72
2023/04/14 10:52:06;;;;;;;9.23;6.77;;;;;;;;;;6190109;23;20371;-71
2023/04/14 10:54:49;;;;;;;5.30;3.47;;;;;;;;;;6216507;23;20379;-73
2023/04/14 10:57:15;;;;;;;10.43;4.27;;;;;;;;;;6216563;23;20833;-74
2023/04/14 10:59:42;;;;;;;1.17;1.00;;;;;;;;;;6216506;23;20378;-71
2023/04/14 11:02:24;;;;;;;0.70;0.70;;;;;;;;;;6217064;23;20382;-74
2023/04/14 11:04:59;;;;;;;1.30;1.23;;;;;;;;;;6216083;23;20383;-73
2023/04/14 11:07:27;;;;;;;2.10;1.17;;;;;;;;;;6216158;23;20374;-74
2023/04/14 11:10:00;;;;;;;2.97;0.97;;;;;;;;;;6216042;23;20387;-69
2023/04/14 11:12:26;;;;;;;2.13;0.70;;;;;;;;;;6216493;23;20355;-65
2023/04/14 11:15:01;;;;;;;2.10;1.33;;;;;;;;;;6214570;23;20418;-65
2023/04/14 11:17:32;;;;;;;2.13;0.60;;;;;;;;;;6216107;23;20367;-65
2023/04/14 11:19:58;;;;;;;2.43;0.60;;;;;;;;;;6216336;23;20368;-65
2023/04/14 11:22:40;;;;;;;2.27;0.70;;;;;;;;;;6215827;23;20494;-65
2023/04/14 11:25:07;;;;;;;1.40;0.80;;;;;;;;;;6216530;23;20450;-66
2023/04/14 11:27:34;;;;;;;1.90;1.13;;;;;;;;;;6216484;23;20480;-66
2023/04/14 11:30:00;;;;;;;2.67;0.80;;;;;;;;;;6216054;23;20383;-69
2023/04/14 11:32:27;;;;;;;1.03;1.03;;;;;;;;;;6216486;23;20448;-73
2023/04/14 11:34:53;;;;;;;2.13;1.00;;;;;;;;;;6216417;23;20394;-74
2023/04/14 11:37:19;;;;;;;1.13;0.80;;;;;;;;;;6215892;23;20375;-73
2023/04/14 11:39:47;;;;;;;1.90;0.70;;;;;;;;;;6214352;23;20515;-71
2023/04/14 11:42:13;;;;;;;4.90;0.80;;;;;;;;;;6215772;23;20386;-74
2023/04/14 11:44:39;;;;;;;1.93;1.20;;;;;;;;;;6216160;23;20379;-69
2023/04/14 11:47:07;;;;;;;1.80;0.93;;;;;;;;;;6215941;23;20838;-68
2023/04/14 11:49:36;;;;;;;3.87;1.63;;;;;;;;;;6216225;23;20386;-67
2023/04/14 11:52:06;;;;;;;0.80;0.80;;;;;;;;;;6215382;23;20386;-70
2023/04/14 11:54:36;;;;;;;1.07;1.00;;;;;;;;;;6216018;23;20861;-69
2023/04/14 11:57:02;;;;;;;0.60;0.50;;;;;;;;;;6215932;23;20406;-68
2023/04/14 11:59:28;;;;;;;2.03;1.10;;;;;;;;;;6216021;23;20379;-71
2023/04/14 12:01:56;;;;;;;6.80;1.33;;;;;;;;;;6214454;23;20428;-71
2023/04/14 12:04:23;;;;;;;0.80;0.80;;;;;;;;;;6214183;23;20245;-72
2023/04/14 12:06:49;;;;;;;3.60;1.40;;;;;;;;;;6215111;23;20474;-73
2023/04/14 12:09:15;;;;;;;0.90;0.90;;;;;;;;;;6215894;23;20406;-74
2023/04/14 12:11:41;;;;;;;2.47;0.80;;;;;;;;;;6215994;23;20842;-72
2023/04/14 12:14:07;;;;;;;1.10;1.10;;;;;;;;;;6215628;23;20375;-72
2023/04/14 12:16:33;;;;;;;7.97;0.80;;;;;;;;;;6215667;23;20386;-74
2023/04/14 12:19:00;;;;;;;11.03;0.80;;;;;;;;;;6215943;23;20378;-74
2023/04/14 12:21:26;;;;;;;1.97;1.03;;;;;;;;;;6215519;23;20429;-74
2023/04/14 12:23:54;;;;;;;1.97;0.83;;;;;;;;;;6215740;23;20438;-71
2023/04/14 12:26:20;;;;;;;1.30;0.90;;;;;;;;;;6215914;23;20470;-73
2023/04/14 12:28:54;;;;;;;1.43;0.50;;;;;;;;;;6215821;23;20376;-70
2023/04/14 12:31:27;;;;;;;2.47;0.90;;;;;;;;;;6215514;23;20371;-74
2023/04/14 12:33:58;;;;;;;1.13;0.83;;;;;;;;;;6215999;23;20360;-72
2023/04/14 12:36:25;;;;;;;1.40;0.90;;;;;;;;;;6215868;23;20432;-73
2023/04/14 12:38:51;;;;;;;1.97;0.90;;;;;;;;;;6214032;23;20380;-74
2023/04/14 12:41:25;;;;;;;1.07;0.97;;;;;;;;;;6215283;23;20523;-72
2023/04/14 12:43:51;;;;;;;0.80;0.80;;;;;;;;;;6216089;23;20426;-73
2023/04/14 12:46:27;;;;;;;3.80;0.97;;;;;;;;;;6215823;23;20382;-74
2023/04/14 12:48:53;;;;;;;4.00;2.73;;;;;;;;;;6213905;23;20469;-73
2023/04/14 12:51:20;;;;;;;2.60;0.70;;;;;;;;;;6215292;23;20414;-72
2023/04/14 12:53:48;;;;;;;1.53;0.70;;;;;;;;;;6215519;23;20450;-70
2023/04/14 12:56:16;;;;;;;1.93;0.50;;;;;;;;;;6216179;23;20367;-75
2023/04/14 12:58:45;;;;;;;2.40;0.87;;;;;;;;;;6215479;23;20746;-72
2023/04/14 13:01:11;;;;;;;1.80;0.83;;;;;;;;;;6215397;23;20397;-74
2023/04/14 13:03:57;;;;;;;0.57;0.57;;;;;;;;;;6215270;23;20442;-74
2023/04/14 13:06:24;;;;;;;0.70;0.70;;;;;;;;;;6215795;23;20363;-74
2023/04/14 13:08:53;;;;;;;0.83;0.63;;;;;;;;;;6216210;23;20383;-71
2023/04/14 13:11:20;;;;;;;1.80;0.50;;;;;;;;;;6217628;23;20375;-73
2023/04/14 13:13:46;;;;;;;4.87;1.03;;;;;;;;;;6217702;23;20415;-68
2023/04/14 13:16:13;;;;;;;0.93;0.80;;;;;;;;;;6217736;23;20375;-70
2023/04/14 13:18:39;;;;;;;1.70;1.10;;;;;;;;;;6217691;23;20371;-66
2023/04/14 13:21:05;;;;;;;3.03;1.33;;;;;;;;;;6217257;23;20844;-67
2023/04/14 13:23:31;;;;;;;0.70;0.60;;;;;;;;;;6217169;23;20438;-71
2023/04/14 13:25:57;;;;;;;4.20;1.47;;;;;;;;;;6217280;23;20833;-67
2023/04/14 13:28:24;;;;;;;2.47;0.67;;;;;;;;;;6215718;23;20455;-70
2023/04/14 13:30:52;;;;;;;0.77;0.50;;;;;;;;;;6217084;23;20845;-70
2023/04/14 13:33:19;;;;;;;0.97;0.80;;;;;;;;;;6217394;23;20391;-72
2023/04/14 13:35:45;;;;;;;6.07;0.80;;;;;;;;;;6218095;23;20713;-71
2023/04/14 13:38:11;;;;;;;0.50;0.50;;;;;;;;;;6217644;23;20822;-72
2023/04/14 13:40:37;;;;;;;0.50;0.50;;;;;;;;;;6216953;23;20433;-69
2023/04/14 13:43:03;;;;;;;1.90;0.50;;;;;;;;;;6217295;23;20434;-75
2023/04/14 13:45:29;;;;;;;1.83;0.80;;;;;;;;;;6217353;23;20410;-70
2023/04/14 13:47:55;;;;;;;4.63;0.90;;;;;;;;;;6217013;23;20387;-70
2023/04/14 13:50:21;;;;;;;1.37;0.93;;;;;;;;;;6216944;23;20398;-68
2023/04/14 13:52:47;;;;;;;0.97;0.47;;;;;;;;;;6216814;23;20397;-72
2023/04/14 13:55:13;;;;;;;0.50;0.50;;;;;;;;;;6216918;23;20873;-71
2023/04/14 13:57:39;;;;;;;4.83;0.77;;;;;;;;;;6217212;23;20387;-66
2023/04/14 14:00:07;;;;;;;2.00;0.77;;;;;;;;;;6216835;23;20367;-71
2023/04/14 14:02:33;;;;;;;5.30;1.40;;;;;;;;;;6216697;23;20502;-71
2023/04/14 14:04:59;;;;;;;0.50;0.50;;;;;;;;;;6215307;23;20395;-72
2023/04/14 14:07:25;;;;;;;2.83;0.47;;;;;;;;;;6216730;23;20433;-74
2023/04/14 14:09:51;;;;;;;3.97;3.67;;;;;;;;;;6216735;23;20383;-72
2023/04/14 14:12:17;;;;;;;1.93;1.70;;;;;;;;;;6216946;23;20391;-70
2023/04/14 14:14:43;;;;;;;2.50;2.40;;;;;;;;;;6217770;23;20830;-66
2023/04/14 14:17:09;;;;;;;1.40;1.30;;;;;;;;;;6216708;23;20378;-69
2023/04/14 14:19:37;;;;;;;0.83;0.83;;;;;;;;;;6217059;23;20747;-69
2023/04/14 14:22:03;;;;;;;1.58;0.80;;;;;;;;;;6215310;23;20691;-67
2023/04/14 14:24:29;;;;;;;0.87;0.70;;;;;;;;;;6216938;23;20184;-69
2023/04/14 14:26:55;;;;;;;2.67;0.60;;;;;;;;;;6216973;23;20442;-66
2023/04/14 14:29:21;;;;;;;0.50;0.40;;;;;;;;;;6216949;23;20382;-65
2023/04/14 14:31:47;;;;;;;1.13;0.70;;;;;;;;;;6216569;23;20371;-67
2023/04/14 14:34:14;;;;;;;0.70;0.70;;;;;;;;;;6216996;23;20840;-66
2023/04/14 14:36:40;;;;;;;0.80;0.80;;;;;;;;;;6216906;23;20383;-73
2023/04/14 14:39:07;;;;;;;1.07;0.67;;;;;;;;;;6216843;23;20378;-69
2023/04/14 14:41:33;;;;;;;0.80;0.80;;;;;;;;;;6216206;23;20465;-67
2023/04/14 14:44:00;;;;;;;1.60;0.63;;;;;;;;;;6216681;23;20426;-68
2023/04/14 14:46:26;;;;;;;0.90;0.73;;;;;;;;;;6216676;23;20382;-68
2023/04/14 14:48:52;;;;;;;0.50;0.50;;;;;;;;;;6216455;23;20868;-66
2023/04/14 14:51:18;;;;;;;3.83;0.80;;;;;;;;;;6216603;23;20371;-68
2023/04/14 14:53:44;;;;;;;2.30;0.60;;;;;;;;;;6216646;23;20924;-66
2023/04/14 14:56:10;;;;;;;0.70;0.70;;;;;;;;;;6216363;23;20838;-68